createdAt,value
2022-10-28T00:02:23.823Z,95352.50
2022-10-28T00:04:50.404Z,95360.25
2022-10-28T00:07:16.989Z,95353.81
2022-10-28T00:09:43.695Z,95360.06
2022-10-28T00:12:10.291Z,95365.47
2022-10-28T00:14:36.962Z,95361.28
2022-10-28T00:17:03.567Z,95344.75
2022-10-28T00:19:30.478Z,95349.38
2022-10-28T00:21:57.079Z,95354.78
2022-10-28T00:24:23.805Z,95350.06
2022-10-28T00:26:50.418Z,95350.97
2022-10-28T00:29:19.758Z,95343.44
2022-10-28T00:31:47.290Z,95352.41
2022-10-28T00:34:19.267Z,95353.41
2022-10-28T00:36:47.434Z,95346.59
2022-10-28T00:39:25.087Z,95344.31
2022-10-28T00:41:57.096Z,95351.72
2022-10-28T00:45:01.807Z,95354.50
2022-10-28T00:48:02.894Z,95346.50
2022-10-28T00:50:54.328Z,95345.81
2022-10-28T00:53:32.365Z,95342.91
2022-10-28T00:56:02.067Z,95346.31
2022-10-28T00:58:29.543Z,95353.75
2022-10-28T01:00:56.653Z,95347.91
2022-10-28T01:03:23.687Z,95356.50
2022-10-28T01:05:51.787Z,95354.59
2022-10-28T01:08:19.334Z,95347.50
2022-10-28T01:11:26.302Z,95347.97
2022-10-28T01:14:01.756Z,95351.78
2022-10-28T01:16:52.561Z,95356.22
2022-10-28T01:19:44.704Z,95356.97
2022-10-28T01:22:34.091Z,95350.22
2022-10-28T01:25:30.505Z,95352.22
2022-10-28T01:28:15.680Z,95345.78
2022-10-28T01:31:21.920Z,95345.03
2022-10-28T01:33:54.429Z,95348.25
2022-10-28T01:36:51.964Z,95356.50
2022-10-28T01:39:35.540Z,95345.59
2022-10-28T01:42:14.147Z,95349.41
2022-10-28T01:44:54.314Z,95352.75
2022-10-28T01:47:51.683Z,95355.16
2022-10-28T01:50:26.958Z,95361.19
2022-10-28T01:52:57.595Z,95356.31
2022-10-28T01:55:30.293Z,95350.75
2022-10-28T01:58:01.259Z,95359.81
2022-10-28T02:00:28.321Z,95352.16
2022-10-28T02:02:56.432Z,95351.25
2022-10-28T02:05:41.698Z,95352.81
2022-10-28T02:08:20.096Z,95351.34
2022-10-28T02:11:11.794Z,95352.22
2022-10-28T02:13:44.269Z,95352.22
2022-10-28T02:16:28.852Z,95345.41
2022-10-28T02:18:55.412Z,95346.28
2022-10-28T02:21:37.464Z,95350.25
2022-10-28T02:24:28.880Z,95347.97
2022-10-28T02:27:15.676Z,95345.06
2022-10-28T02:29:51.111Z,95348.56
2022-10-28T02:32:23.057Z,95354.47
2022-10-28T02:34:55.074Z,95355.53
2022-10-28T02:37:27.873Z,95346.44
2022-10-28T02:40:03.005Z,95359.41
2022-10-28T02:42:33.903Z,95360.53
2022-10-28T02:45:11.992Z,95372.78
2022-10-28T02:47:43.060Z,95364.59
2022-10-28T02:50:15.717Z,95369.09
2022-10-28T02:52:45.096Z,95369.56
2022-10-28T02:55:11.949Z,95364.00
2022-10-28T02:57:44.794Z,95370.72
2022-10-28T03:00:16.374Z,95373.19
2022-10-28T03:02:43.073Z,95369.81
2022-10-28T03:05:10.443Z,95360.44
2022-10-28T03:07:37.130Z,95369.25
2022-10-28T03:10:04.107Z,95365.03
2022-10-28T03:12:30.701Z,95366.13
2022-10-28T03:14:57.283Z,95360.88
2022-10-28T03:17:23.958Z,95360.59
2022-10-28T03:19:50.547Z,95355.72
2022-10-28T03:22:17.191Z,95363.13
2022-10-28T03:24:43.814Z,95354.69
2022-10-28T03:27:10.407Z,95350.09
2022-10-28T03:29:37.021Z,95359.84
2022-10-28T03:32:03.690Z,95363.19
2022-10-28T03:34:30.343Z,95362.78
2022-10-28T03:36:56.893Z,95359.69
2022-10-28T03:39:23.611Z,95360.50
2022-10-28T03:41:50.248Z,95361.09
2022-10-28T03:44:16.825Z,95361.53
2022-10-28T03:46:43.421Z,95368.13
2022-10-28T03:49:10.041Z,95371.16
2022-10-28T03:51:36.619Z,95370.25
2022-10-28T03:54:03.359Z,95370.34
2022-10-28T03:56:29.968Z,95365.56
2022-10-28T03:58:56.537Z,95368.25
2022-10-28T04:01:23.183Z,95365.56
2022-10-28T04:03:49.874Z,95373.38
2022-10-28T04:06:17.127Z,95364.91
2022-10-28T04:08:43.759Z,95370.13
2022-10-28T04:11:10.347Z,95361.75
2022-10-28T04:13:36.945Z,95376.59
2022-10-28T04:16:03.762Z,95373.69
2022-10-28T04:18:30.501Z,95371.53
2022-10-28T04:20:57.162Z,95369.03
2022-10-28T04:23:23.770Z,95381.19
2022-10-28T04:25:54.282Z,95374.19
2022-10-28T04:28:24.131Z,95382.88
2022-10-28T04:30:50.737Z,95377.75
2022-10-28T04:33:17.379Z,95373.88
2022-10-28T04:35:45.000Z,95374.88
2022-10-28T04:38:12.940Z,95369.06
2022-10-28T04:40:39.950Z,95380.34
2022-10-28T04:43:08.602Z,95371.50
2022-10-28T04:45:36.801Z,95368.63
2022-10-28T04:48:03.678Z,95372.63
2022-10-28T04:50:30.333Z,95365.44
2022-10-28T04:53:00.301Z,95373.13
2022-10-28T04:55:27.066Z,95361.72
2022-10-28T04:58:06.220Z,95373.63
2022-10-28T05:00:32.851Z,95373.75
2022-10-28T05:03:03.249Z,95370.16
2022-10-28T05:05:30.158Z,95373.41
2022-10-28T05:07:57.154Z,95379.31
2022-10-28T05:10:24.523Z,95372.19
2022-10-28T05:12:51.386Z,95375.72
2022-10-28T05:15:18.108Z,95375.72
2022-10-28T05:17:46.539Z,95385.34
2022-10-28T05:20:16.107Z,95380.25
2022-10-28T05:22:48.093Z,95384.31
2022-10-28T05:25:14.900Z,95392.97
2022-10-28T05:27:41.704Z,95383.22
2022-10-28T05:30:09.615Z,95394.28
2022-10-28T05:32:36.489Z,95403.88
2022-10-28T05:35:05.692Z,95394.41
2022-10-28T05:37:32.440Z,95396.00
2022-10-28T05:39:59.119Z,95401.41
2022-10-28T05:42:25.708Z,95398.25
2022-10-28T05:44:52.358Z,95397.81
2022-10-28T05:47:19.011Z,95398.47
2022-10-28T05:49:45.689Z,95407.94
2022-10-28T05:52:12.376Z,95405.19
2022-10-28T05:54:38.962Z,95410.91
2022-10-28T05:57:05.663Z,95414.38
2022-10-28T05:59:32.305Z,95400.97
2022-10-28T06:01:59.025Z,95400.41
2022-10-28T06:04:25.654Z,95404.91
2022-10-28T06:06:55.288Z,95405.69
2022-10-28T06:09:22.141Z,95413.63
2022-10-28T06:11:47.282Z,95411.66
2022-10-28T06:14:13.872Z,95413.75
2022-10-28T06:16:40.540Z,95417.69
2022-10-28T06:19:07.467Z,95426.31
2022-10-28T06:21:34.059Z,95436.38
2022-10-28T06:24:00.696Z,95437.19
2022-10-28T06:26:27.290Z,95435.94
2022-10-28T06:28:53.932Z,95442.38
2022-10-28T06:31:20.542Z,95451.44
2022-10-28T06:33:47.152Z,95445.06
2022-10-28T06:36:13.851Z,95438.03
2022-10-28T06:38:40.577Z,95448.44
2022-10-28T06:41:07.243Z,95440.78
2022-10-28T06:43:33.844Z,95440.56
2022-10-28T06:46:02.192Z,95438.09
2022-10-28T06:48:30.316Z,95441.34
2022-10-28T06:50:58.166Z,95434.09
2022-10-28T06:53:25.516Z,95433.53
2022-10-28T06:55:56.226Z,95423.88
2022-10-28T06:58:25.796Z,95431.31
2022-10-28T07:00:53.317Z,95434.13
2022-10-28T07:03:20.053Z,95434.53
2022-10-28T07:05:49.242Z,95434.41
2022-10-28T07:08:15.918Z,95438.09
2022-10-28T07:10:42.699Z,95437.63
2022-10-28T07:13:09.454Z,95442.69
2022-10-28T07:15:36.066Z,95445.16
2022-10-28T07:18:02.802Z,95444.88
2022-10-28T07:20:32.049Z,95440.78
2022-10-28T07:23:02.631Z,95444.56
2022-10-28T07:25:30.889Z,95447.81
2022-10-28T07:27:58.669Z,95444.41
2022-10-28T07:30:25.819Z,95446.56
2022-10-28T07:32:52.802Z,95451.00
2022-10-28T07:35:20.573Z,95445.84
2022-10-28T07:37:47.602Z,95435.28
2022-10-28T07:40:14.584Z,95437.97
2022-10-28T07:42:41.231Z,95440.50
2022-10-28T07:45:08.223Z,95439.81
2022-10-28T07:47:35.119Z,95446.13
2022-10-28T07:50:02.131Z,95441.53
2022-10-28T07:52:28.817Z,95438.28
2022-10-28T07:54:55.447Z,95439.50
2022-10-28T07:57:22.042Z,95437.53
2022-10-28T07:59:48.655Z,95435.94
2022-10-28T08:02:20.727Z,95430.97
2022-10-28T08:04:47.820Z,95442.78
2022-10-28T08:07:15.526Z,95440.91
2022-10-28T08:09:42.350Z,95435.00
2022-10-28T08:12:09.843Z,95433.09
2022-10-28T08:14:36.570Z,95446.50
2022-10-28T08:17:03.215Z,95441.56
2022-10-28T08:19:29.857Z,95439.03
2022-10-28T08:21:56.841Z,95439.25
2022-10-28T08:24:23.759Z,95447.13
2022-10-28T08:26:50.832Z,95445.16
2022-10-28T08:29:17.579Z,95446.84
2022-10-28T08:31:44.210Z,95440.84
2022-10-28T08:34:10.901Z,95441.16
2022-10-28T08:36:37.636Z,95443.28
2022-10-28T08:39:04.347Z,95441.59
2022-10-28T08:41:52.604Z,95440.72
2022-10-28T08:44:56.946Z,95440.09
2022-10-28T08:47:53.204Z,95432.63
2022-10-28T08:50:23.031Z,95441.13
2022-10-28T08:53:06.711Z,95432.84
2022-10-28T08:55:41.341Z,95438.19
2022-10-28T08:58:13.077Z,95428.81
2022-10-28T09:00:43.366Z,95420.91
2022-10-28T09:03:13.235Z,95429.09
2022-10-28T09:05:44.867Z,95421.84
2022-10-28T09:08:22.593Z,95416.94
2022-10-28T09:11:01.115Z,95418.75
2022-10-28T09:13:42.879Z,95414.97
2022-10-28T09:16:11.303Z,95422.88
2022-10-28T09:18:56.673Z,95407.50
2022-10-28T09:21:32.886Z,95410.53
2022-10-28T09:24:07.500Z,95409.22
2022-10-28T09:27:00.940Z,95396.69
2022-10-28T09:30:08.302Z,95400.81
2022-10-28T09:32:37.393Z,95392.53
2022-10-28T09:35:11.938Z,95386.69
2022-10-28T09:37:44.631Z,95384.31
2022-10-28T09:40:14.323Z,95383.28
2022-10-28T09:42:49.190Z,95385.63
2022-10-28T09:45:27.472Z,95377.66
2022-10-28T09:48:33.150Z,95370.78
2022-10-28T09:51:00.954Z,95355.13
2022-10-28T09:53:42.885Z,95358.28
2022-10-28T09:56:10.234Z,95351.38
2022-10-28T09:58:40.290Z,95355.44
2022-10-28T10:01:06.991Z,95352.16
2022-10-28T10:03:33.620Z,95349.19
2022-10-28T10:06:11.819Z,95349.31
2022-10-28T10:08:40.616Z,95339.75
2022-10-28T10:11:30.579Z,95349.47
2022-10-28T10:13:59.058Z,95343.56
2022-10-28T10:16:56.646Z,95342.53
2022-10-28T10:19:23.374Z,95342.16
2022-10-28T10:21:55.445Z,95342.22
2022-10-28T10:24:23.416Z,95330.63
2022-10-28T10:26:51.414Z,95324.66
2022-10-28T10:29:18.478Z,95334.44
2022-10-28T10:31:46.981Z,95327.59
2022-10-28T10:34:27.340Z,95323.19
2022-10-28T10:36:56.244Z,95323.03
2022-10-28T10:39:37.361Z,95324.00
2022-10-28T10:42:16.487Z,95320.94
2022-10-28T10:44:43.630Z,95317.72
2022-10-28T10:47:10.185Z,95322.44
2022-10-28T10:49:37.120Z,95313.34
2022-10-28T10:52:15.523Z,95312.81
2022-10-28T10:54:56.904Z,95306.94
2022-10-28T10:57:25.703Z,95295.59
2022-10-28T10:59:54.441Z,95297.63
2022-10-28T11:02:21.175Z,95300.44
2022-10-28T11:05:02.948Z,95300.06
2022-10-28T11:07:30.536Z,95301.25
2022-10-28T11:09:57.490Z,95291.78
2022-10-28T11:12:35.719Z,95289.91
2022-10-28T11:15:23.098Z,95279.63
2022-10-28T11:18:17.443Z,95280.28
2022-10-28T11:20:55.129Z,95279.63
2022-10-28T11:23:46.333Z,95278.28
2022-10-28T11:26:16.205Z,95275.69
2022-10-28T11:29:23.723Z,95274.00
2022-10-28T11:32:08.970Z,95279.03
2022-10-28T11:34:54.204Z,95274.03
2022-10-28T11:37:47.657Z,95266.59
2022-10-28T11:40:51.675Z,95267.25
2022-10-28T11:43:55.062Z,95259.91
2022-10-28T11:46:43.834Z,95264.63
2022-10-28T11:49:25.208Z,95257.69
2022-10-28T11:51:57.433Z,95255.78
2022-10-28T11:54:31.691Z,95256.44
2022-10-28T11:57:09.003Z,95248.72
2022-10-28T12:00:00.617Z,95243.75
2022-10-28T12:03:14.950Z,95255.09
2022-10-28T12:05:55.020Z,95244.84
2022-10-28T12:08:30.363Z,95242.31
2022-10-28T12:11:11.877Z,95239.50
2022-10-28T12:13:42.147Z,95237.16
2022-10-28T12:16:17.326Z,95234.78
2022-10-28T12:18:51.633Z,95241.66
2022-10-28T12:21:24.349Z,95233.84
2022-10-28T12:23:53.990Z,95227.88
2022-10-28T12:26:24.738Z,95231.34
2022-10-28T12:29:01.876Z,95233.22
2022-10-28T12:31:34.752Z,95230.00
2022-10-28T12:34:09.104Z,95237.56
2022-10-28T12:37:04.580Z,95229.81
2022-10-28T12:39:55.577Z,95230.72
2022-10-28T12:42:40.133Z,95225.22
2022-10-28T12:45:13.128Z,95217.78
2022-10-28T12:47:53.111Z,95219.84
2022-10-28T12:50:19.688Z,95223.59
2022-10-28T12:53:01.867Z,95213.97
2022-10-28T12:55:35.202Z,95223.81
2022-10-28T12:58:22.323Z,95218.03
2022-10-28T13:00:54.582Z,95214.22
2022-10-28T13:03:21.277Z,95207.63
2022-10-28T13:05:50.869Z,95215.50
2022-10-28T13:08:47.187Z,95217.44
2022-10-28T13:11:19.658Z,95212.66
2022-10-28T13:14:18.287Z,95216.91
2022-10-28T13:16:51.003Z,95212.44
2022-10-28T13:19:20.329Z,95220.22
2022-10-28T13:22:11.142Z,95208.00
2022-10-28T13:24:55.018Z,95210.81
2022-10-28T13:27:22.818Z,95206.25
2022-10-28T13:29:56.433Z,95206.00
2022-10-28T13:32:39.668Z,95206.91
2022-10-28T13:35:24.327Z,95206.53
2022-10-28T13:37:54.180Z,95208.94
2022-10-28T13:40:43.056Z,95204.09
2022-10-28T13:43:20.427Z,95205.09
2022-10-28T13:45:48.724Z,95199.16
2022-10-28T13:48:30.607Z,95200.03
2022-10-28T13:51:09.439Z,95194.81
2022-10-28T13:53:45.106Z,95199.13
2022-10-28T13:56:20.815Z,95194.53
2022-10-28T13:58:59.753Z,95195.38
2022-10-28T14:01:37.557Z,95193.50
2022-10-28T14:04:05.972Z,95189.22
2022-10-28T14:06:35.265Z,95193.50
2022-10-28T14:09:02.150Z,95194.25
2022-10-28T14:11:30.460Z,95191.50
2022-10-28T14:14:01.255Z,95195.34
2022-10-28T14:16:44.223Z,95189.81
2022-10-28T14:19:10.793Z,95191.81
2022-10-28T14:21:51.513Z,95191.34
2022-10-28T14:24:38.538Z,95188.94
2022-10-28T14:27:08.318Z,95185.34
2022-10-28T14:29:45.123Z,95180.28
2022-10-28T14:32:33.492Z,95181.72
2022-10-28T14:35:19.856Z,95181.66
2022-10-28T14:37:55.559Z,95180.50
2022-10-28T14:40:24.593Z,95180.06
2022-10-28T14:43:27.913Z,95183.41
2022-10-28T14:46:09.847Z,95185.66
2022-10-28T14:48:47.198Z,95183.31
2022-10-28T14:51:18.435Z,95182.88
2022-10-28T14:53:46.504Z,95178.59
2022-10-28T14:59:00.757Z,95174.19
2022-10-28T15:01:35.164Z,95178.81
2022-10-28T15:04:04.046Z,95177.19
2022-10-28T15:06:41.690Z,95174.72
2022-10-28T15:09:17.755Z,95181.66
2022-10-28T15:11:49.689Z,95178.41
2022-10-28T15:14:37.932Z,95173.44
2022-10-28T15:17:13.966Z,95182.22
2022-10-28T15:19:41.538Z,95182.25
2022-10-28T15:22:20.001Z,95184.09
2022-10-28T15:25:14.354Z,95178.22
2022-10-28T15:27:44.700Z,95179.28
2022-10-28T15:30:25.851Z,95178.06
2022-10-28T15:32:54.063Z,95184.09
2022-10-28T15:35:38.583Z,95179.34
2022-10-28T15:38:38.185Z,95180.91
2022-10-28T15:41:22.858Z,95181.81
2022-10-28T15:44:03.383Z,95186.84
2022-10-28T15:46:32.228Z,95191.56
2022-10-28T15:49:01.354Z,95188.44
2022-10-28T15:51:28.753Z,95189.44
2022-10-28T15:54:10.490Z,95198.25
2022-10-28T15:56:57.826Z,95195.78
2022-10-28T15:59:25.734Z,95196.03
2022-10-28T16:01:56.226Z,95202.13
2022-10-28T16:04:23.062Z,95203.50
2022-10-28T16:06:52.692Z,95204.25
2022-10-28T16:09:35.008Z,95210.19
2022-10-28T16:12:22.532Z,95214.22
2022-10-28T16:14:57.104Z,95216.69
2022-10-28T16:17:27.227Z,95216.38
2022-10-28T16:20:04.409Z,95218.28
2022-10-28T16:22:35.342Z,95221.38
2022-10-28T16:25:03.193Z,95227.13
2022-10-28T16:27:33.045Z,95225.03
2022-10-28T16:29:59.770Z,95225.09
2022-10-28T16:32:35.402Z,95230.47
2022-10-28T16:35:02.703Z,95228.84
2022-10-28T16:37:32.484Z,95235.16
2022-10-28T16:39:59.255Z,95236.59
2022-10-28T16:42:27.025Z,95237.41
2022-10-28T16:44:53.693Z,95235.47
2022-10-28T16:47:23.091Z,95240.44
2022-10-28T16:49:54.116Z,95232.81
2022-10-28T16:52:27.573Z,95231.25
2022-10-28T16:54:54.428Z,95238.91
2022-10-28T16:57:21.594Z,95236.53
2022-10-28T16:59:48.507Z,95233.16
2022-10-28T17:02:30.281Z,95242.59
2022-10-28T17:04:57.901Z,95248.22
2022-10-28T17:07:25.287Z,95250.72
2022-10-28T17:09:52.525Z,95243.72
2022-10-28T17:12:37.747Z,95241.28
2022-10-28T17:15:18.049Z,95247.34
2022-10-28T17:17:45.032Z,95242.00
2022-10-28T17:20:11.871Z,95248.19
2022-10-28T17:22:40.038Z,95247.97
2022-10-28T17:25:08.078Z,95251.75
2022-10-28T17:27:34.775Z,95256.56
2022-10-28T17:30:01.493Z,95250.59
2022-10-28T17:32:28.264Z,95259.31
2022-10-28T17:34:54.860Z,95254.84
2022-10-28T17:37:21.644Z,95257.03
2022-10-28T17:39:48.342Z,95257.81
2022-10-28T17:42:15.024Z,95256.63
2022-10-28T17:44:41.604Z,95260.91
2022-10-28T17:47:08.330Z,95262.81
2022-10-28T17:49:36.568Z,95262.38
2022-10-28T17:52:03.318Z,95262.22
2022-10-28T17:54:29.967Z,95263.72
2022-10-28T17:56:56.948Z,95266.44
2022-10-28T17:59:23.735Z,95260.78
2022-10-28T18:01:50.550Z,95251.91
2022-10-28T18:04:17.565Z,95260.97
2022-10-28T18:06:44.194Z,95254.69
2022-10-28T18:09:13.845Z,95262.63
2022-10-28T18:11:40.889Z,95258.69
2022-10-28T18:14:07.548Z,95255.66
2022-10-28T18:16:36.489Z,95253.22
2022-10-28T18:19:05.488Z,95258.28
2022-10-28T18:21:32.312Z,95251.38
2022-10-28T18:24:04.030Z,95246.97
2022-10-28T18:26:32.471Z,95245.78
2022-10-28T18:28:59.543Z,95249.81
2022-10-28T18:31:26.258Z,95246.69
2022-10-28T18:33:53.259Z,95253.19
2022-10-28T18:36:23.758Z,95250.50
2022-10-28T18:38:51.176Z,95252.50
2022-10-28T18:41:20.213Z,95250.50
2022-10-28T18:43:47.114Z,95258.88
2022-10-28T18:46:14.976Z,95260.34
2022-10-28T18:48:42.226Z,95255.41
2022-10-28T18:51:12.517Z,95257.22
2022-10-28T18:53:41.948Z,95262.00
2022-10-28T18:56:12.354Z,95259.78
2022-10-28T18:58:39.383Z,95258.44
2022-10-28T19:01:11.540Z,95262.16
2022-10-28T19:03:38.567Z,95256.78
2022-10-28T19:06:11.075Z,95264.09
2022-10-28T19:08:38.248Z,95265.56
2022-10-28T19:11:05.737Z,95264.94
2022-10-28T19:13:34.167Z,95261.69
2022-10-28T19:16:00.882Z,95272.31
2022-10-28T19:18:27.898Z,95263.34
2022-10-28T19:21:00.984Z,95268.28
2022-10-28T19:23:27.584Z,95271.69
2022-10-28T19:25:56.072Z,95278.28
2022-10-28T19:28:23.253Z,95279.06
2022-10-28T19:30:50.258Z,95272.38
2022-10-28T19:33:16.895Z,95272.56
2022-10-28T19:35:43.491Z,95278.91
2022-10-28T19:38:10.124Z,95283.16
2022-10-28T19:40:36.675Z,95288.56
2022-10-28T19:43:03.301Z,95288.81
2022-10-28T19:45:29.965Z,95288.81
2022-10-28T19:48:01.190Z,95293.69
2022-10-28T19:50:28.148Z,95296.81
2022-10-28T19:52:54.795Z,95294.66
2022-10-28T19:55:21.512Z,95293.84
2022-10-28T19:57:50.404Z,95298.97
2022-10-28T20:00:19.577Z,95300.19
2022-10-28T20:02:47.493Z,95304.81
2022-10-28T20:05:14.202Z,95307.91
2022-10-28T20:07:40.793Z,95308.13
2022-10-28T20:10:08.087Z,95310.13
2022-10-28T20:12:34.675Z,95304.63
2022-10-28T20:15:01.753Z,95308.38
2022-10-28T20:17:28.361Z,95315.03
2022-10-28T20:19:54.961Z,95319.31
2022-10-28T20:22:21.553Z,95315.03
2022-10-28T20:24:48.182Z,95316.53
2022-10-28T20:27:14.831Z,95310.41
2022-10-28T20:29:41.393Z,95315.25
2022-10-28T20:32:08.024Z,95314.69
2022-10-28T20:34:34.733Z,95312.09
2022-10-28T20:37:01.932Z,95310.97
2022-10-28T20:39:28.553Z,95308.97
2022-10-28T20:41:55.162Z,95307.63
2022-10-28T20:44:21.929Z,95312.44
2022-10-28T20:46:49.024Z,95313.28
2022-10-28T20:49:15.726Z,95314.59
2022-10-28T20:51:42.498Z,95311.91
2022-10-28T20:54:09.272Z,95312.56
2022-10-28T20:56:38.321Z,95315.97
2022-10-28T20:59:05.448Z,95313.84
2022-10-28T21:01:37.670Z,95307.00
2022-10-28T21:04:09.969Z,95304.97
2022-10-28T21:06:37.984Z,95307.88
2022-10-28T21:09:05.367Z,95302.75
2022-10-28T21:11:32.113Z,95294.41
2022-10-28T21:14:00.416Z,95305.94
2022-10-28T21:16:27.915Z,95295.69
2022-10-28T21:18:55.059Z,95308.69
2022-10-28T21:21:23.168Z,95306.63
2022-10-28T21:23:49.828Z,95296.91
2022-10-28T21:26:17.067Z,95291.16
2022-10-28T21:28:44.340Z,95290.97
2022-10-28T21:31:16.302Z,95296.25
2022-10-28T21:33:43.412Z,95298.00
2022-10-28T21:36:12.916Z,95302.97
2022-10-28T21:38:40.173Z,95299.50
2022-10-28T21:41:12.834Z,95300.47
2022-10-28T21:43:41.896Z,95311.25
2022-10-28T21:46:08.874Z,95305.66
2022-10-28T21:48:36.767Z,95307.75
2022-10-28T21:51:08.547Z,95306.66
2022-10-28T21:53:38.920Z,95307.78
2022-10-28T21:56:15.584Z,95304.22
2022-10-28T21:58:44.167Z,95302.91
2022-10-28T22:01:13.158Z,95303.22
2022-10-28T22:03:39.966Z,95304.56
2022-10-28T22:06:07.039Z,95301.34
2022-10-28T22:08:33.773Z,95299.19
2022-10-28T22:11:06.256Z,95295.25
2022-10-28T22:13:34.445Z,95299.44
2022-10-28T22:16:04.041Z,95292.44
2022-10-28T22:18:32.437Z,95294.06
2022-10-28T22:21:11.145Z,95297.63
2022-10-28T22:23:38.439Z,95292.72
2022-10-28T22:26:07.979Z,95297.25
2022-10-28T22:28:34.973Z,95293.88
2022-10-28T22:31:04.306Z,95289.41
2022-10-28T22:33:31.000Z,95286.13
2022-10-28T22:35:58.984Z,95286.78
2022-10-28T22:38:26.262Z,95294.56
2022-10-28T22:41:11.246Z,95288.69
2022-10-28T22:43:38.668Z,95284.91
2022-10-28T22:46:05.854Z,95284.22
2022-10-28T22:48:32.806Z,95283.13
2022-10-28T22:51:00.035Z,95288.75
2022-10-28T22:53:26.742Z,95281.44
2022-10-28T22:55:53.943Z,95281.88
2022-10-28T22:58:21.623Z,95279.88
2022-10-28T23:00:48.534Z,95281.66
2022-10-28T23:03:15.514Z,95278.34
2022-10-28T23:05:42.406Z,95278.88
2022-10-28T23:08:14.093Z,95278.09
2022-10-28T23:10:40.707Z,95277.66
2022-10-28T23:13:08.687Z,95290.19
2022-10-28T23:15:35.247Z,95287.31
2022-10-28T23:18:01.826Z,95281.72
2022-10-28T23:20:28.426Z,95282.13
2022-10-28T23:22:56.367Z,95287.19
2022-10-28T23:25:23.205Z,95282.03
2022-10-28T23:27:49.801Z,95278.13
2022-10-28T23:30:16.490Z,95280.47
2022-10-28T23:32:43.137Z,95270.28
2022-10-28T23:35:09.972Z,95279.34
2022-10-28T23:37:36.689Z,95280.72
2022-10-28T23:40:03.661Z,95278.03
2022-10-28T23:42:30.305Z,95284.81
2022-10-28T23:44:56.937Z,95279.47
2022-10-28T23:47:23.488Z,95279.56
2022-10-28T23:49:50.120Z,95269.06
2022-10-28T23:52:16.788Z,95275.09
2022-10-28T23:54:43.397Z,95275.75
2022-10-28T23:57:10.010Z,95267.22
2022-10-28T23:59:36.687Z,95270.38
